Nearby METAR Reports

 

KSJC - San Jose, California, USA
Distance from station: NE 9mi, 14km
Updated: Fri, 04/19/2024 8:53am
Few Clouds
Few Clouds
 Wind from SSE
Wind: SSE 7 mph, 11 km/h
Temperature: 52°F, 11°C
Dew Point: 45°F, 7°C
Humidity: 77%
Barometer: 29.95 inHg, 1014.2 hPa
Clouds: Few Clouds
Visibility: 10 miles, 16 km
Cloud details: Few Clouds 4000 ft
Few Clouds 8000 ft
2024/04/19 12:53 KSJC 191253Z 16006KT 10SM FEW040 FEW080 11/07 A2995 RMK AO2 SLP143 T01060072
KNUQ - Moffett Nas/Mtn, California, USA
Distance from station: N 9mi, 14km
Updated: Fri, 04/19/2024 8:55am
Overcast
Overcast
 Wind from SE
Wind: SE 3 mph, 6 km/h
Temperature: 52°F, 11°C
Dew Point: 46°F, 8°C
Humidity: 82%
Barometer: 29.96 inHg, 1014.6 hPa
Clouds: Overcast
Visibility: 8 miles, 13 km
Cloud details: Overcast 1300 ft
2024/04/19 12:55 KNUQ 191255Z AUTO 14003KT 8SM OVC013 11/08 A2996 RMK AO2
 
KPAO - Palo Alto, California, USA
Distance from station: NNW 14mi, 23km
Updated: Thu, 04/18/2024 11:47pm
NOT Current
Clear
Clear
 Wind from NNW
Wind: NNW 12 mph, 19 km/h
Temperature: 55°F, 13°C
Dew Point: 48°F, 9°C
Humidity: 77%
Barometer: 29.93 inHg, 1013.5 hPa
Clouds: Clear
Visibility: 10 miles, 16 km
2024/04/19 03:47 KPAO 190347Z 34010KT 10SM SKC 13/09 A2993 RMK LAST
KRHV - San Jose/Reid, California, USA
Distance from station: ENE 12mi, 19km
Updated: Fri, 04/19/2024 12:55am
NOT Current
Partly cloudy
Partly cloudy
 Wind from SW
Wind: SW 7 mph, 11 km/h
Temperature: 57°F, 14°C
Dew Point: 46°F, 8°C
Humidity: 67%
Barometer: 29.96 inHg, 1014.6 hPa
Clouds: Partly cloudy
Visibility: 10 miles, 16 km
Cloud details: Partly cloudy 9000 ft
2024/04/19 04:55 KRHV 190455Z 22006KT 10SM SCT090 14/08 A2996
 
KOAK - Oakland, California, USA
Distance from station: NNW 31mi, 50km
Updated: Fri, 04/19/2024 8:53am
Overcast
Overcast
 Wind from varies
Wind: varies 3 mph, 6 km/h
Temperature: 54°F, 12°C
Dew Point: 52°F, 11°C
Humidity: 94%
Barometer: 29.97 inHg, 1014.9 hPa
Clouds: Overcast
Visibility: 10 miles, 16 km
Cloud details: Overcast 1100 ft
2024/04/19 12:53 KOAK 191253Z VRB03KT 10SM OVC011 12/11 A2997 RMK AO2 SLP147 T01170106
KSQL - San Carlos Airpo, California, USA
Distance from station: NW 21mi, 34km
Updated: Fri, 04/19/2024 8:55am
Overcast
Overcast
 Wind from NNW
Wind: NNW 6 mph, 9 km/h
Temperature: 54°F, 12°C
Dew Point: 50°F, 10°C
Humidity: 88%
Barometer: 29.96 inHg, 1014.6 hPa
Clouds: Overcast
Visibility: 8 miles, 13 km
Cloud details: Overcast 1100 ft
2024/04/19 12:55 KSQL 191255Z AUTO 33005KT 8SM OVC011 12/10 A2996 RMK AO2
 
KSFO - San Francisco, California, USA
Distance from station: NW 30mi, 49km
Updated: Fri, 04/19/2024 8:56am
Overcast
Overcast
 Wind from W
Wind: W 5 mph, 7 km/h
Temperature: 52°F, 11°C
Dew Point: 46°F, 8°C
Humidity: 82%
Barometer: 29.95 inHg, 1014.2 hPa
Clouds: Overcast
Visibility: 10 miles, 16 km
Cloud details: Overcast 1100 ft
2024/04/19 12:56 KSFO 191256Z 28004KT 10SM OVC011 11/08 A2995 RMK AO2 SLP143 T01110083
KE16 - San Martin, California, USA
Distance from station: ESE 27mi, 43km
Updated: Fri, 04/19/2024 8:55am
Mist, Overcast
Mist, Overcast
 Wind from SSE
Wind: SSE 3 mph, 6 km/h
Temperature: 48°F, 9°C
Dew Point: 48°F, 9°C
Humidity: 100%
Barometer: 29.99 inHg, 1015.6 hPa
Summary: Mist
Clouds: Overcast
Visibility: 6 miles, 10 km
Cloud details: Overcast 900 ft
2024/04/19 12:55 KE16 191255Z AUTO 16003KT 6SM BR OVC009 09/09 A2999 RMK AO2
 
KWVI - Watsonville, California, USA
Distance from station: SSE 27mi, 44km
Updated: Fri, 04/19/2024 8:53am
Overcast
Overcast
 Wind from calm
Wind: Calm
Temperature: 52°F, 11°C
Dew Point: 46°F, 8°C
Humidity: 82%
Barometer: 29.98 inHg, 1015.2 hPa
Clouds: Overcast
Visibility: 10 miles, 16 km
Cloud details: Overcast 1100 ft
2024/04/19 12:53 KWVI 191253Z AUTO 00000KT 10SM OVC011 11/08 A2998 RMK AO2 SLP151 T01060083
KHAF - Half Moon Bay, California, USA
Distance from station: WNW 31mi, 50km
Updated: Fri, 04/19/2024 8:55am
Mist, Overcast
Mist, Overcast
 Wind from SSE
Wind: SSE 7 mph, 11 km/h
Temperature: 50°F, 10°C
Wind Chill: 47°F, 8°C
Dew Point: 50°F, 10°C
Humidity: 100%
Barometer: 29.97 inHg, 1014.9 hPa
Summary: Mist
Clouds: Overcast
Visibility: 6 miles, 10 km
Cloud details: Overcast 900 ft
2024/04/19 12:55 KHAF 191255Z AUTO 15006KT 6SM BR OVC009 10/10 A2997 RMK AO2
 
KHWD - Hayward, California, USA
Distance from station: N 28mi, 44km
Updated: Fri, 04/19/2024 8:54am
Overcast
Overcast
 Wind from N
Wind: N 5 mph, 7 km/h
Temperature: 55°F, 13°C
Dew Point: 48°F, 9°C
Humidity: 77%
Barometer: 29.95 inHg, 1014.2 hPa
Clouds: Overcast
Visibility: 9 miles, 14 km
Cloud details: Overcast 1100 ft
2024/04/19 12:54 KHWD 191254Z AUTO 36004KT 9SM OVC011 13/09 A2995 RMK AO2 SLP152 T01280094 $
KLVK - Livermore, California, USA
Distance from station: NNE 31mi, 51km
Updated: Fri, 04/19/2024 8:53am
Clear
Clear
 Wind from W
Wind: W 5 mph, 7 km/h
Temperature: 48°F, 9°C
Wind Chill: 46°F, 8°C
Dew Point: 45°F, 7°C
Humidity: 87%
Barometer: 29.94 inHg, 1013.9 hPa
Clouds: Clear
Visibility: 7 miles, 11 km
2024/04/19 12:53 KLVK 191253Z AUTO 28004KT 7SM CLR 09/07 A2994 RMK AO2 SLP135 T00890072
Number of visitors since April 1, 2024
Free Website Hit Counter
Free website hit counter